Change the Weather History Date:

Sunday, December 30, 2012

  Actual Average Record
Temperature  
Mean Temperature 42 °F -  
Max Temperature 44 °F 24 °F 46 °F (1967)
Min Temperature 39 °F 8 °F -34 °F (1949)
Degree Days  
Heating Degree Days 24    
Moisture  
Dew Point 29 °F    
Average Humidity 62    
Maximum Humidity 81    
Minimum Humidity 39    
Precipitation  
Precipitation 0.00 in - - ()
Sea Level Pressure  
Sea Level Pressure 29.17 in    
Wind  
Wind Speed 13 mph (ENE)    
Max Wind Speed 23 mph    
Max Gust Speed 33 mph    
Visibility 10 miles    
Events      
Averages and records for this station are not official NWS values.
T = Trace of Precipitation, MM = Missing Value Source: NWS Daily Summary

Daily Weather History Graph

Daily Weather History Graph

Search for Another Location

Airport or City:

Trip Planner

Search our weather history database for the weather conditions in past years. The results will help you decide how hot, cold, wet, or windy it might be!

Date:

Astronomy

Dec. 30, 2012 Rise Set
Actual Time 10:16 AM AKST 3:45 PM AKST
Civil Twilight 9:14 AM AKST 4:48 PM AKST
Nautical Twilight 8:13 AM AKST 5:48 PM AKST
Astronomical Twilight 7:19 AM AKST 6:42 PM AKST
Moon 7:26 PM AKST (12/30) 10:37 AM AKST (12/30)
Length of Visible Light 7h 33m
Length of Day
5h 28m
Waning Gibbous, 94% of the Moon is Illuminated
Dec 30
Waning Gibbous
Jan 4
Last Quarter
Jan 11
New
Jan 18
First Quarter
Jan 26
Full

Hourly Weather History & Observations

Time (AKST) Temp. Windchill Dew Point Humidity Pressure Visibility Wind Dir Wind Speed Gust Speed Precip Events Conditions
12:16 AM 41.0 °F 36.4 °F 21.2 °F 45% 29.25 in 10.0 mi East 6.9 mph - N/A   Clear
12:36 AM 42.8 °F 37.5 °F 19.4 °F 39% 29.25 in 10.0 mi ENE 9.2 mph 18.4 mph N/A   Clear
12:56 AM 42.8 °F 36.6 °F 21.2 °F 42% 29.24 in 10.0 mi ENE 11.5 mph 17.3 mph N/A   Clear
1:16 AM 42.8 °F 34.8 °F 24.8 °F 49% 29.25 in 10.0 mi ENE 17.3 mph - N/A   Clear
1:36 AM 42.8 °F 34.5 °F 28.4 °F 57% 29.23 in 10.0 mi ENE 18.4 mph 25.3 mph N/A   Clear
1:56 AM 42.8 °F 34.3 °F 30.2 °F 61% 29.21 in 10.0 mi ENE 19.6 mph 27.6 mph N/A   Clear
2:16 AM 42.8 °F 36.2 °F 32.0 °F 66% 29.22 in 10.0 mi East 12.7 mph 25.3 mph N/A   Clear
2:36 AM 39.2 °F 30.8 °F 26.6 °F 61% 29.20 in 10.0 mi ENE 15.0 mph 28.8 mph N/A   Clear
2:56 AM 41.0 °F 33.9 °F 30.2 °F 65% 29.20 in 10.0 mi ENE 12.7 mph 21.9 mph N/A   Clear
3:36 AM 41.0 °F 33.1 °F 30.2 °F 65% 29.16 in 10.0 mi ENE 15.0 mph 27.6 mph N/A   Clear
3:56 AM 42.8 °F 35.1 °F 28.4 °F 57% 29.14 in 10.0 mi ENE 16.1 mph 32.2 mph N/A   Clear
4:16 AM 42.8 °F 35.1 °F 28.4 °F 57% 29.14 in 10.0 mi ENE 16.1 mph 28.8 mph N/A   Clear
4:36 AM 42.8 °F 36.6 °F 28.4 °F 57% 29.14 in 10.0 mi ENE 11.5 mph 18.4 mph N/A   Clear
4:56 AM 42.8 °F 35.8 °F 28.4 °F 57% 29.12 in 10.0 mi ENE 13.8 mph 24.2 mph N/A   Clear
5:16 AM 42.8 °F 35.4 °F 28.4 °F 57% 29.11 in 10.0 mi ENE 15.0 mph 26.5 mph N/A   Clear
5:36 AM 42.8 °F 34.0 °F 28.4 °F 57% 29.10 in 10.0 mi ENE 20.7 mph 29.9 mph N/A   Clear
5:56 AM 44.6 °F 36.6 °F 28.4 °F 53% 29.08 in 10.0 mi East 19.6 mph 32.2 mph N/A   Clear
6:16 AM 42.8 °F 36.6 °F 30.2 °F 61% 29.08 in 10.0 mi East 11.5 mph 26.5 mph N/A   Clear
6:36 AM 39.2 °F 33.0 °F 30.2 °F 70% 29.09 in 10.0 mi East 9.2 mph 23.0 mph N/A   Clear
6:56 AM 39.2 °F - 30.2 °F 70% 29.07 in 10.0 mi Calm Calm - N/A   Clear
7:16 AM 42.8 °F 37.0 °F 30.2 °F 61% 29.07 in 10.0 mi East 10.4 mph 24.2 mph N/A   Clear
7:36 AM 42.8 °F 36.2 °F 32.0 °F 66% 29.06 in 10.0 mi East 12.7 mph 23.0 mph N/A   Clear
7:56 AM 39.2 °F 32.0 °F 33.8 °F 81% 29.08 in 10.0 mi East 11.5 mph 19.6 mph N/A   Clear
8:16 AM 39.2 °F 32.0 °F 33.8 °F 81% 29.06 in 10.0 mi ENE 11.5 mph 19.6 mph N/A   Partly Cloudy
8:36 AM 39.2 °F 31.6 °F 33.8 °F 81% 29.05 in 10.0 mi East 12.7 mph 18.4 mph N/A   Scattered Clouds
8:56 AM 39.2 °F 31.6 °F 33.8 °F 81% 29.04 in 10.0 mi East 12.7 mph 19.6 mph N/A   Mostly Cloudy
9:16 AM 41.0 °F 33.5 °F 32.0 °F 70% 29.05 in 10.0 mi East 13.8 mph 23.0 mph N/A   Mostly Cloudy
9:36 AM 42.8 °F 36.6 °F 33.8 °F 70% 29.07 in 10.0 mi East 11.5 mph 23.0 mph N/A   Mostly Cloudy
9:56 AM 42.8 °F 35.8 °F 33.8 °F 70% 29.08 in 10.0 mi East 13.8 mph 26.5 mph N/A   Overcast
10:16 AM 42.8 °F 36.6 °F 33.8 °F 70% 29.08 in 10.0 mi East 11.5 mph 25.3 mph N/A   Mostly Cloudy
10:36 AM 41.0 °F 33.1 °F 33.8 °F 76% 29.08 in 10.0 mi East 15.0 mph 26.5 mph N/A   Mostly Cloudy
10:56 AM 42.8 °F 34.5 °F 32.0 °F 66% 29.07 in 10.0 mi ENE 18.4 mph 31.1 mph N/A   Mostly Cloudy
11:16 AM 42.8 °F 33.8 °F 30.2 °F 61% 29.07 in 10.0 mi ENE 21.9 mph 31.1 mph N/A   Partly Cloudy
11:36 AM 42.8 °F 34.8 °F 30.2 °F 61% 29.07 in 10.0 mi East 17.3 mph 33.4 mph N/A   Mostly Cloudy
11:56 AM 42.8 °F 34.5 °F 30.2 °F 61% 29.07 in 10.0 mi East 18.4 mph 31.1 mph N/A   Mostly Cloudy
12:16 PM 42.8 °F 35.8 °F 30.2 °F 61% 29.10 in 10.0 mi ENE 13.8 mph 26.5 mph N/A   Mostly Cloudy
12:36 PM 42.8 °F 33.5 °F 30.2 °F 61% 29.09 in 10.0 mi ENE 23.0 mph 29.9 mph N/A   Scattered Clouds
12:56 PM 41.0 °F 32.5 °F 30.2 °F 65% 29.11 in 10.0 mi ENE 17.3 mph 26.5 mph N/A   Mostly Cloudy
1:16 PM 42.8 °F 34.5 °F 28.4 °F 57% 29.10 in 10.0 mi ENE 18.4 mph 26.5 mph N/A   Partly Cloudy
1:36 PM 42.8 °F 35.4 °F 28.4 °F 57% 29.10 in 10.0 mi East 15.0 mph 23.0 mph N/A   Partly Cloudy
1:56 PM 42.8 °F 34.5 °F 26.6 °F 53% 29.11 in 10.0 mi East 18.4 mph 28.8 mph N/A   Mostly Cloudy
2:16 PM 42.8 °F 35.8 °F 28.4 °F 57% 29.11 in 10.0 mi East 13.8 mph 26.5 mph N/A   Overcast
2:36 PM 42.8 °F 35.4 °F 28.4 °F 57% 29.13 in 10.0 mi East 15.0 mph 26.5 mph N/A   Overcast
2:56 PM 41.0 °F 32.2 °F 30.2 °F 65% 29.13 in 10.0 mi ENE 18.4 mph 28.8 mph N/A   Mostly Cloudy
3:16 PM 39.2 °F 30.2 °F 30.2 °F 70% 29.13 in 10.0 mi ENE 17.3 mph 28.8 mph N/A   Mostly Cloudy
3:36 PM 39.2 °F 29.6 °F 30.2 °F 70% 29.14 in 10.0 mi ENE 19.6 mph 28.8 mph N/A   Scattered Clouds
3:56 PM 39.2 °F 29.6 °F 30.2 °F 70% 29.15 in 10.0 mi ENE 19.6 mph 31.1 mph N/A   Partly Cloudy
4:16 PM 39.2 °F 31.2 °F 30.2 °F 70% 29.15 in 10.0 mi East 13.8 mph 26.5 mph N/A   Scattered Clouds
4:36 PM 41.0 °F 33.5 °F 28.4 °F 61% 29.15 in 10.0 mi East 13.8 mph 26.5 mph N/A   Scattered Clouds
4:56 PM 41.0 °F 32.8 °F 28.4 °F 61% 29.16 in 10.0 mi ENE 16.1 mph 26.5 mph N/A   Partly Cloudy
5:16 PM 41.0 °F 33.1 °F 28.4 °F 61% 29.18 in 10.0 mi ENE 15.0 mph 31.1 mph N/A   Clear
5:36 PM 41.0 °F 31.9 °F 28.4 °F 61% 29.18 in 10.0 mi ENE 19.6 mph 28.8 mph N/A   Clear
5:56 PM 39.2 °F 31.2 °F 28.4 °F 65% 29.19 in 10.0 mi East 13.8 mph 25.3 mph N/A   Clear
6:16 PM 39.2 °F 31.2 °F 28.4 °F 65% 29.20 in 10.0 mi East 13.8 mph 31.1 mph N/A   Clear
6:36 PM 41.0 °F 33.5 °F 28.4 °F 61% 29.20 in 10.0 mi East 13.8 mph 21.9 mph N/A   Clear
6:56 PM 41.0 °F 34.3 °F 28.4 °F 61% 29.21 in 10.0 mi East 11.5 mph 20.7 mph N/A   Clear
7:16 PM 41.0 °F 33.5 °F 28.4 °F 61% 29.22 in 10.0 mi East 13.8 mph 23.0 mph N/A   Clear
7:36 PM 41.0 °F 33.9 °F 28.4 °F 61% 29.23 in 10.0 mi ENE 12.7 mph 20.7 mph N/A   Clear
7:56 PM 41.0 °F 34.7 °F 28.4 °F 61% 29.25 in 10.0 mi East 10.4 mph 16.1 mph N/A   Partly Cloudy
8:16 PM 41.0 °F 34.3 °F 28.4 °F 61% 29.25 in 10.0 mi ENE 11.5 mph 19.6 mph N/A   Mostly Cloudy
8:36 PM 42.8 °F 37.0 °F 26.6 °F 53% 29.26 in 10.0 mi East 10.4 mph 18.4 mph N/A   Partly Cloudy
9:16 PM 42.8 °F 38.6 °F 26.6 °F 53% 29.29 in 10.0 mi East 6.9 mph 16.1 mph N/A   Clear
9:36 PM 42.8 °F 37.5 °F 26.6 °F 53% 29.31 in 10.0 mi East 9.2 mph - N/A   Clear
9:56 PM 41.0 °F 34.3 °F 28.4 °F 61% 29.32 in 10.0 mi East 11.5 mph - N/A   Partly Cloudy
10:16 PM 41.0 °F 34.3 °F 28.4 °F 61% 29.34 in 10.0 mi East 11.5 mph 19.6 mph N/A   Clear
10:36 PM 41.0 °F 35.8 °F 28.4 °F 61% 29.35 in 10.0 mi East 8.1 mph - N/A   Partly Cloudy
10:56 PM 39.2 °F 32.5 °F 28.4 °F 65% 29.36 in 10.0 mi ENE 10.4 mph 16.1 mph N/A   Scattered Clouds
11:16 PM 39.2 °F 32.0 °F 28.4 °F 65% 29.38 in 10.0 mi ENE 11.5 mph 16.1 mph N/A   Mostly Cloudy
11:36 PM 41.0 °F 35.8 °F 26.6 °F 57% 29.39 in 10.0 mi East 8.1 mph - N/A   Mostly Cloudy
11:56 PM 41.0 °F 34.7 °F 26.6 °F 57% 29.41 in 10.0 mi East 10.4 mph - N/A   Overcast